Airfield :
LOGIN :

Register | Disclaimer

   EN    FR    IT 

 










Legend :    VFR   Marginal VFR   IFR   Intensive IFR   Very Intensive IFR
Visi :
Ceiling :
>= 8 km
>= 3000ft
5 to 8 km
1000 to 3000 ft
1500m to 5 km
500 to 1000 ft
800 to 1500m
200 to 500 ft
< 800m
< 200 ft
Symbols :   Thunderstorms  Fog  Heavy snow  Heavy precipitations  Wind > 20 kt
SIGMETs :     Misc.  Thunderstorms  Icing  Turbulence  Mountain Waves  Volcanic Ashes






- Airport Elevation : 142 ft
- IATA code : FLR


LIRQ - Firenze Amerigo Vespucci

CURRENT METAR :
  • 220750Z VRB02KT 9999 BKN027 23/17 Q1014

EXPIRED METARs :
  • 220720Z VRB02KT 9999 SCT027 23/16 Q1014
  • 220650Z VRB02KT 9999 SCT027 21/16 Q1014
  • 220620Z VRB02KT 9999 BKN025 21/17 Q1014
  • 220550Z 20003KT 160V220 9999 BKN024 20/16 Q1014
  • 220520Z 16005KT 130V190 9999 BKN026 20/16 Q1014
  • 220450Z VRB02KT 9999 BKN025 19/17 Q1014
  • 220420Z VRB02KT 9999 SCT025 19/16 Q1014
  • 220350Z 11003KT 080V140 9999 SCT025 17/15 Q1014
  • 220320Z 14004KT 9999 SCT025 18/16 Q1014

TAF TAF LIRQ
Valid from the 22 at 06:00 until the 23 at 06:00 UTC


220500Z 2206/2306 VRB05KT 9999 SCT030
BECMG 2209/2211 26013KT
BECMG 2218/2220 VRB05KT



MET'MAP, your aeronautical weather chart ! - Copyright ORBIFLY December 2007 - Disclaimer

ORBIFLY MET'MAP TEAM :

Programming & Development : Alexandra Zaïnal
Original concept : Baudouin d'Aumeries
Technical & hardware support : Manuel Goepfert
Assistance : Marc-Olivier Méhu




SOURCES & CREDITS :

   NOAA